sensor_id;sensor_type;location;lat;lon;timestamp;temperature;humidity
40638;DHT22;26336;44.696;10.622;2023-04-15T00:00:00;12.50;72.80
40638;DHT22;26336;44.696;10.622;2023-04-15T00:03:04;12.40;72.50
40638;DHT22;26336;44.696;10.622;2023-04-15T00:06:08;12.30;73.00
40638;DHT22;26336;44.696;10.622;2023-04-15T00:09:12;12.10;73.80
40638;DHT22;26336;44.696;10.622;2023-04-15T00:12:16;12.10;74.00
40638;DHT22;26336;44.696;10.622;2023-04-15T00:15:19;12.10;74.30
40638;DHT22;26336;44.696;10.622;2023-04-15T00:18:23;12.10;75.40
40638;DHT22;26336;44.696;10.622;2023-04-15T00:21:27;12.10;74.90
40638;DHT22;26336;44.696;10.622;2023-04-15T00:24:31;12.10;75.10
40638;DHT22;26336;44.696;10.622;2023-04-15T00:27:35;12.10;76.50
40638;DHT22;26336;44.696;10.622;2023-04-15T00:30:39;12.10;76.30
40638;DHT22;26336;44.696;10.622;2023-04-15T00:33:43;12.10;76.30
40638;DHT22;26336;44.696;10.622;2023-04-15T00:36:47;12.10;76.60
40638;DHT22;26336;44.696;10.622;2023-04-15T00:39:50;12.10;77.40
40638;DHT22;26336;44.696;10.622;2023-04-15T00:42:54;12.10;77.30
40638;DHT22;26336;44.696;10.622;2023-04-15T00:45:58;12.00;76.60
40638;DHT22;26336;44.696;10.622;2023-04-15T00:49:03;12.10;76.50
40638;DHT22;26336;44.696;10.622;2023-04-15T00:52:07;12.00;77.10
40638;DHT22;26336;44.696;10.622;2023-04-15T00:55:11;12.00;77.40
40638;DHT22;26336;44.696;10.622;2023-04-15T00:58:15;12.00;77.80
40638;DHT22;26336;44.696;10.622;2023-04-15T01:01:19;12.00;78.00
40638;DHT22;26336;44.696;10.622;2023-04-15T01:04:23;12.00;78.20
40638;DHT22;26336;44.696;10.622;2023-04-15T01:07:27;11.90;78.10
40638;DHT22;26336;44.696;10.622;2023-04-15T01:10:30;11.90;79.10
40638;DHT22;26336;44.696;10.622;2023-04-15T01:13:35;11.90;80.10
40638;DHT22;26336;44.696;10.622;2023-04-15T01:16:39;11.80;80.80
40638;DHT22;26336;44.696;10.622;2023-04-15T01:19:43;11.80;80.90
40638;DHT22;26336;44.696;10.622;2023-04-15T01:22:47;11.80;80.80
40638;DHT22;26336;44.696;10.622;2023-04-15T01:25:51;11.80;80.50
40638;DHT22;26336;44.696;10.622;2023-04-15T01:28:55;11.80;80.30
40638;DHT22;26336;44.696;10.622;2023-04-15T01:32:00;11.80;80.50
40638;DHT22;26336;44.696;10.622;2023-04-15T01:35:23;11.70;80.40
40638;DHT22;26336;44.696;10.622;2023-04-15T01:38:28;11.70;80.60
40638;DHT22;26336;44.696;10.622;2023-04-15T01:41:31;11.60;80.60
40638;DHT22;26336;44.696;10.622;2023-04-15T01:44:39;11.50;81.20
40638;DHT22;26336;44.696;10.622;2023-04-15T01:47:44;11.50;81.00
40638;DHT22;26336;44.696;10.622;2023-04-15T01:50:51;11.50;81.00
40638;DHT22;26336;44.696;10.622;2023-04-15T01:53:57;11.50;81.60
40638;DHT22;26336;44.696;10.622;2023-04-15T01:57:02;11.30;81.00
40638;DHT22;26336;44.696;10.622;2023-04-15T02:00:09;11.30;81.40
40638;DHT22;26336;44.696;10.622;2023-04-15T02:03:18;11.30;82.20
40638;DHT22;26336;44.696;10.622;2023-04-15T02:06:23;11.30;82.60
40638;DHT22;26336;44.696;10.622;2023-04-15T02:09:28;11.40;82.20
40638;DHT22;26336;44.696;10.622;2023-04-15T02:12:33;11.30;82.80
40638;DHT22;26336;44.696;10.622;2023-04-15T02:15:39;11.30;82.70
40638;DHT22;26336;44.696;10.622;2023-04-15T02:18:44;11.30;82.50
40638;DHT22;26336;44.696;10.622;2023-04-15T02:21:49;11.30;82.90
40638;DHT22;26336;44.696;10.622;2023-04-15T02:24:56;11.30;82.80
40638;DHT22;26336;44.696;10.622;2023-04-15T02:28:01;11.30;82.50
40638;DHT22;26336;44.696;10.622;2023-04-15T02:31:06;11.30;82.40
40638;DHT22;26336;44.696;10.622;2023-04-15T02:34:12;11.30;81.30
40638;DHT22;26336;44.696;10.622;2023-04-15T02:37:22;11.30;81.40
40638;DHT22;26336;44.696;10.622;2023-04-15T02:40:28;11.30;81.00
40638;DHT22;26336;44.696;10.622;2023-04-15T02:43:34;11.30;81.30
40638;DHT22;26336;44.696;10.622;2023-04-15T02:46:39;11.30;80.90
40638;DHT22;26336;44.696;10.622;2023-04-15T02:49:45;11.30;81.80
40638;DHT22;26336;44.696;10.622;2023-04-15T02:52:50;11.20;82.20
40638;DHT22;26336;44.696;10.622;2023-04-15T02:55:56;11.20;82.50
40638;DHT22;26336;44.696;10.622;2023-04-15T02:59:01;11.20;82.00
40638;DHT22;26336;44.696;10.622;2023-04-15T03:02:06;11.20;81.20
40638;DHT22;26336;44.696;10.622;2023-04-15T03:05:12;11.20;81.60
40638;DHT22;26336;44.696;10.622;2023-04-15T03:08:21;11.10;82.60
40638;DHT22;26336;44.696;10.622;2023-04-15T03:11:27;11.00;83.00
40638;DHT22;26336;44.696;10.622;2023-04-15T03:14:33;11.10;82.90
40638;DHT22;26336;44.696;10.622;2023-04-15T03:17:37;11.00;81.60
40638;DHT22;26336;44.696;10.622;2023-04-15T03:20:43;10.90;82.00
40638;DHT22;26336;44.696;10.622;2023-04-15T03:23:48;10.80;82.10
40638;DHT22;26336;44.696;10.622;2023-04-15T03:26:53;10.90;82.60
40638;DHT22;26336;44.696;10.622;2023-04-15T03:29:59;10.90;83.10
40638;DHT22;26336;44.696;10.622;2023-04-15T03:33:06;11.00;82.20
40638;DHT22;26336;44.696;10.622;2023-04-15T03:36:12;11.00;81.80
40638;DHT22;26336;44.696;10.622;2023-04-15T03:39:17;11.00;82.10
40638;DHT22;26336;44.696;10.622;2023-04-15T03:42:22;10.90;81.90
40638;DHT22;26336;44.696;10.622;2023-04-15T03:45:27;10.80;82.10
40638;DHT22;26336;44.696;10.622;2023-04-15T03:48:32;10.70;83.40
40638;DHT22;26336;44.696;10.622;2023-04-15T03:51:37;10.80;83.80
40638;DHT22;26336;44.696;10.622;2023-04-15T03:54:42;10.80;84.30
40638;DHT22;26336;44.696;10.622;2023-04-15T03:57:47;10.60;82.40
40638;DHT22;26336;44.696;10.622;2023-04-15T04:00:52;10.30;83.40
40638;DHT22;26336;44.696;10.622;2023-04-15T04:03:58;10.30;84.60
40638;DHT22;26336;44.696;10.622;2023-04-15T04:07:03;10.40;85.80
40638;DHT22;26336;44.696;10.622;2023-04-15T04:10:08;10.50;85.10
40638;DHT22;26336;44.696;10.622;2023-04-15T04:13:14;10.60;85.50
40638;DHT22;26336;44.696;10.622;2023-04-15T04:16:19;10.60;85.00
40638;DHT22;26336;44.696;10.622;2023-04-15T04:19:24;10.70;84.70
40638;DHT22;26336;44.696;10.622;2023-04-15T04:22:29;10.70;85.20
40638;DHT22;26336;44.696;10.622;2023-04-15T04:25:34;10.70;84.40
40638;DHT22;26336;44.696;10.622;2023-04-15T04:28:39;10.70;84.00
40638;DHT22;26336;44.696;10.622;2023-04-15T04:31:44;10.70;84.00
40638;DHT22;26336;44.696;10.622;2023-04-15T04:34:50;10.70;83.80
40638;DHT22;26336;44.696;10.622;2023-04-15T04:37:56;10.60;83.70
40638;DHT22;26336;44.696;10.622;2023-04-15T04:41:01;10.70;84.50
40638;DHT22;26336;44.696;10.622;2023-04-15T04:44:05;10.60;84.70
40638;DHT22;26336;44.696;10.622;2023-04-15T04:47:10;10.60;84.90
40638;DHT22;26336;44.696;10.622;2023-04-15T04:50:15;10.60;85.30
40638;DHT22;26336;44.696;10.622;2023-04-15T04:53:21;10.50;85.50
40638;DHT22;26336;44.696;10.622;2023-04-15T04:56:26;10.50;85.90
40638;DHT22;26336;44.696;10.622;2023-04-15T04:59:31;10.50;85.90
40638;DHT22;26336;44.696;10.622;2023-04-15T05:02:36;10.40;87.00
40638;DHT22;26336;44.696;10.622;2023-04-15T05:05:41;10.40;86.70
40638;DHT22;26336;44.696;10.622;2023-04-15T05:08:46;10.30;87.20
40638;DHT22;26336;44.696;10.622;2023-04-15T05:11:51;10.30;87.40
40638;DHT22;26336;44.696;10.622;2023-04-15T05:14:56;10.30;88.10
40638;DHT22;26336;44.696;10.622;2023-04-15T05:18:02;10.30;88.80
40638;DHT22;26336;44.696;10.622;2023-04-15T05:21:07;10.20;89.60
40638;DHT22;26336;44.696;10.622;2023-04-15T05:24:12;10.20;90.20
40638;DHT22;26336;44.696;10.622;2023-04-15T05:27:17;10.10;89.80
40638;DHT22;26336;44.696;10.622;2023-04-15T05:30:22;10.00;90.10
40638;DHT22;26336;44.696;10.622;2023-04-15T05:33:27;10.00;89.70
40638;DHT22;26336;44.696;10.622;2023-04-15T05:36:33;10.00;90.00
40638;DHT22;26336;44.696;10.622;2023-04-15T05:39:38;9.90;90.00
40638;DHT22;26336;44.696;10.622;2023-04-15T05:42:43;9.90;90.30
40638;DHT22;26336;44.696;10.622;2023-04-15T05:45:48;9.80;90.60
40638;DHT22;26336;44.696;10.622;2023-04-15T05:48:53;9.80;90.70
40638;DHT22;26336;44.696;10.622;2023-04-15T05:51:58;9.80;90.60
40638;DHT22;26336;44.696;10.622;2023-04-15T05:55:03;9.70;90.90
40638;DHT22;26336;44.696;10.622;2023-04-15T05:58:09;9.80;90.90
40638;DHT22;26336;44.696;10.622;2023-04-15T06:01:15;9.80;91.10
40638;DHT22;26336;44.696;10.622;2023-04-15T06:04:20;9.80;91.30
40638;DHT22;26336;44.696;10.622;2023-04-15T06:07:26;9.80;90.90
40638;DHT22;26336;44.696;10.622;2023-04-15T06:10:31;9.80;90.80
40638;DHT22;26336;44.696;10.622;2023-04-15T06:13:40;9.80;91.00
40638;DHT22;26336;44.696;10.622;2023-04-15T06:16:45;9.80;90.80
40638;DHT22;26336;44.696;10.622;2023-04-15T06:19:50;9.90;91.00
40638;DHT22;26336;44.696;10.622;2023-04-15T06:22:59;9.90;91.20
40638;DHT22;26336;44.696;10.622;2023-04-15T06:26:04;10.00;91.40
40638;DHT22;26336;44.696;10.622;2023-04-15T06:29:09;10.00;91.60
40638;DHT22;26336;44.696;10.622;2023-04-15T06:32:14;10.00;91.60
40638;DHT22;26336;44.696;10.622;2023-04-15T06:35:20;10.10;91.50
40638;DHT22;26336;44.696;10.622;2023-04-15T06:38:24;10.10;91.40
40638;DHT22;26336;44.696;10.622;2023-04-15T06:41:29;10.20;91.50
40638;DHT22;26336;44.696;10.622;2023-04-15T06:44:35;10.30;91.20
40638;DHT22;26336;44.696;10.622;2023-04-15T06:47:40;10.40;90.90
40638;DHT22;26336;44.696;10.622;2023-04-15T06:50:46;10.50;91.10
40638;DHT22;26336;44.696;10.622;2023-04-15T06:53:51;10.50;90.80
40638;DHT22;26336;44.696;10.622;2023-04-15T06:56:56;10.50;90.70
40638;DHT22;26336;44.696;10.622;2023-04-15T07:00:01;10.60;91.20
40638;DHT22;26336;44.696;10.622;2023-04-15T07:03:06;10.70;91.30
40638;DHT22;26336;44.696;10.622;2023-04-15T07:06:14;10.70;90.70
40638;DHT22;26336;44.696;10.622;2023-04-15T07:09:23;10.90;90.50
40638;DHT22;26336;44.696;10.622;2023-04-15T07:12:28;10.90;90.50
40638;DHT22;26336;44.696;10.622;2023-04-15T07:15:33;11.00;90.40
40638;DHT22;26336;44.696;10.622;2023-04-15T07:18:38;11.00;90.10
40638;DHT22;26336;44.696;10.622;2023-04-15T07:21:43;11.10;90.60
40638;DHT22;26336;44.696;10.622;2023-04-15T07:24:48;11.10;92.20
40638;DHT22;26336;44.696;10.622;2023-04-15T07:27:53;11.20;92.20
40638;DHT22;26336;44.696;10.622;2023-04-15T07:30:58;11.30;92.40
40638;DHT22;26336;44.696;10.622;2023-04-15T07:34:03;11.30;92.40
40638;DHT22;26336;44.696;10.622;2023-04-15T07:37:08;11.40;93.80
40638;DHT22;26336;44.696;10.622;2023-04-15T07:40:13;11.50;94.10
40638;DHT22;26336;44.696;10.622;2023-04-15T07:43:22;11.50;94.40
40638;DHT22;26336;44.696;10.622;2023-04-15T07:46:27;11.60;94.90
40638;DHT22;26336;44.696;10.622;2023-04-15T07:49:33;11.60;95.30
40638;DHT22;26336;44.696;10.622;2023-04-15T07:52:38;11.70;95.60
40638;DHT22;26336;44.696;10.622;2023-04-15T07:55:42;11.80;95.50
40638;DHT22;26336;44.696;10.622;2023-04-15T07:58:48;11.80;96.00
40638;DHT22;26336;44.696;10.622;2023-04-15T08:01:53;11.80;95.90
40638;DHT22;26336;44.696;10.622;2023-04-15T08:04:58;11.90;95.50
40638;DHT22;26336;44.696;10.622;2023-04-15T08:08:06;11.90;94.60
40638;DHT22;26336;44.696;10.622;2023-04-15T08:11:12;12.00;95.00
40638;DHT22;26336;44.696;10.622;2023-04-15T08:14:17;12.10;95.00
40638;DHT22;26336;44.696;10.622;2023-04-15T08:17:22;12.10;95.00
40638;DHT22;26336;44.696;10.622;2023-04-15T08:20:27;12.20;94.50
40638;DHT22;26336;44.696;10.622;2023-04-15T08:23:32;12.30;93.50
40638;DHT22;26336;44.696;10.622;2023-04-15T08:26:38;12.40;93.10
40638;DHT22;26336;44.696;10.622;2023-04-15T08:29:43;12.50;93.70
40638;DHT22;26336;44.696;10.622;2023-04-15T08:32:49;12.60;93.90
40638;DHT22;26336;44.696;10.622;2023-04-15T08:36:02;12.70;92.70
40638;DHT22;26336;44.696;10.622;2023-04-15T08:39:08;12.80;92.80
40638;DHT22;26336;44.696;10.622;2023-04-15T08:42:16;12.90;92.90
40638;DHT22;26336;44.696;10.622;2023-04-15T08:45:22;13.00;93.30
40638;DHT22;26336;44.696;10.622;2023-04-15T08:48:33;13.20;93.30
40638;DHT22;26336;44.696;10.622;2023-04-15T08:51:40;13.30;92.70
40638;DHT22;26336;44.696;10.622;2023-04-15T08:54:45;13.40;92.30
40638;DHT22;26336;44.696;10.622;2023-04-15T08:57:51;13.60;92.30
40638;DHT22;26336;44.696;10.622;2023-04-15T09:00:59;13.70;92.40
40638;DHT22;26336;44.696;10.622;2023-04-15T09:04:05;13.80;92.90
40638;DHT22;26336;44.696;10.622;2023-04-15T09:07:11;13.90;92.50
40638;DHT22;26336;44.696;10.622;2023-04-15T09:10:17;14.00;92.80
40638;DHT22;26336;44.696;10.622;2023-04-15T09:13:22;14.00;92.60
40638;DHT22;26336;44.696;10.622;2023-04-15T09:16:27;14.10;92.30
40638;DHT22;26336;44.696;10.622;2023-04-15T09:19:32;14.20;91.70
40638;DHT22;26336;44.696;10.622;2023-04-15T09:22:38;14.30;91.30
40638;DHT22;26336;44.696;10.622;2023-04-15T09:25:44;14.30;91.30
40638;DHT22;26336;44.696;10.622;2023-04-15T09:28:50;14.40;91.50
40638;DHT22;26336;44.696;10.622;2023-04-15T09:31:55;14.50;91.50
40638;DHT22;26336;44.696;10.622;2023-04-15T09:35:09;14.60;91.60
40638;DHT22;26336;44.696;10.622;2023-04-15T09:38:14;14.70;91.40
40638;DHT22;26336;44.696;10.622;2023-04-15T09:41:19;14.90;91.80
40638;DHT22;26336;44.696;10.622;2023-04-15T09:44:25;15.00;92.40
40638;DHT22;26336;44.696;10.622;2023-04-15T09:47:30;15.10;91.40
40638;DHT22;26336;44.696;10.622;2023-04-15T09:50:35;15.10;90.60
40638;DHT22;26336;44.696;10.622;2023-04-15T09:53:45;15.20;90.60
40638;DHT22;26336;44.696;10.622;2023-04-15T09:56:50;15.20;91.40
40638;DHT22;26336;44.696;10.622;2023-04-15T09:59:55;15.20;90.00
40638;DHT22;26336;44.696;10.622;2023-04-15T10:02:59;15.20;88.30
40638;DHT22;26336;44.696;10.622;2023-04-15T10:06:05;15.30;88.60
40638;DHT22;26336;44.696;10.622;2023-04-15T10:09:11;15.30;88.80
40638;DHT22;26336;44.696;10.622;2023-04-15T10:12:21;15.40;90.00
40638;DHT22;26336;44.696;10.622;2023-04-15T10:15:26;15.40;89.80
40638;DHT22;26336;44.696;10.622;2023-04-15T10:18:37;15.50;88.90
40638;DHT22;26336;44.696;10.622;2023-04-15T10:21:44;15.50;90.20
40638;DHT22;26336;44.696;10.622;2023-04-15T10:24:49;15.50;90.10
40638;DHT22;26336;44.696;10.622;2023-04-15T10:27:54;15.70;89.50
40638;DHT22;26336;44.696;10.622;2023-04-15T10:31:01;15.80;89.40
40638;DHT22;26336;44.696;10.622;2023-04-15T10:34:06;15.90;89.60
40638;DHT22;26336;44.696;10.622;2023-04-15T10:37:12;15.90;89.60
40638;DHT22;26336;44.696;10.622;2023-04-15T10:43:32;16.00;90.60
40638;DHT22;26336;44.696;10.622;2023-04-15T10:46:39;16.10;90.00
40638;DHT22;26336;44.696;10.622;2023-04-15T10:52:50;16.20;89.00
40638;DHT22;26336;44.696;10.622;2023-04-15T10:55:56;16.20;89.50
40638;DHT22;26336;44.696;10.622;2023-04-15T10:59:01;16.20;88.20
40638;DHT22;26336;44.696;10.622;2023-04-15T11:02:08;16.20;88.40
40638;DHT22;26336;44.696;10.622;2023-04-15T11:05:18;16.30;88.60
40638;DHT22;26336;44.696;10.622;2023-04-15T11:08:51;16.30;88.90
40638;DHT22;26336;44.696;10.622;2023-04-15T11:12:04;16.40;88.10
40638;DHT22;26336;44.696;10.622;2023-04-15T11:18:54;16.50;87.60
40638;DHT22;26336;44.696;10.622;2023-04-15T11:22:05;16.50;86.30
40638;DHT22;26336;44.696;10.622;2023-04-15T11:25:10;16.60;86.30
40638;DHT22;26336;44.696;10.622;2023-04-15T11:28:26;16.70;88.20
40638;DHT22;26336;44.696;10.622;2023-04-15T11:31:35;16.80;88.30
40638;DHT22;26336;44.696;10.622;2023-04-15T11:34:40;16.90;88.20
40638;DHT22;26336;44.696;10.622;2023-04-15T11:37:45;16.90;88.30
40638;DHT22;26336;44.696;10.622;2023-04-15T11:40:50;16.90;88.20
40638;DHT22;26336;44.696;10.622;2023-04-15T11:43:56;16.90;88.00
40638;DHT22;26336;44.696;10.622;2023-04-15T11:47:20;16.90;87.80
40638;DHT22;26336;44.696;10.622;2023-04-15T11:50:26;16.80;88.30
40638;DHT22;26336;44.696;10.622;2023-04-15T11:53:40;16.70;87.80
40638;DHT22;26336;44.696;10.622;2023-04-15T11:56:48;16.80;86.90
40638;DHT22;26336;44.696;10.622;2023-04-15T11:59:55;16.90;87.20
40638;DHT22;26336;44.696;10.622;2023-04-15T12:03:16;16.90;85.40
40638;DHT22;26336;44.696;10.622;2023-04-15T12:06:21;17.00;86.10
40638;DHT22;26336;44.696;10.622;2023-04-15T12:09:26;17.10;87.30
40638;DHT22;26336;44.696;10.622;2023-04-15T12:12:30;17.10;87.50
40638;DHT22;26336;44.696;10.622;2023-04-15T12:15:36;17.20;85.90
40638;DHT22;26336;44.696;10.622;2023-04-15T12:18:41;17.20;87.70
40638;DHT22;26336;44.696;10.622;2023-04-15T12:21:48;17.30;85.40
40638;DHT22;26336;44.696;10.622;2023-04-15T12:24:55;17.30;85.40
40638;DHT22;26336;44.696;10.622;2023-04-15T12:28:00;17.20;84.60
40638;DHT22;26336;44.696;10.622;2023-04-15T12:31:07;17.30;85.00
40638;DHT22;26336;44.696;10.622;2023-04-15T12:34:12;17.40;86.00
40638;DHT22;26336;44.696;10.622;2023-04-15T12:37:17;17.40;85.30
40638;DHT22;26336;44.696;10.622;2023-04-15T12:43:43;17.30;83.60
40638;DHT22;26336;44.696;10.622;2023-04-15T12:46:47;17.40;81.50
40638;DHT22;26336;44.696;10.622;2023-04-15T12:49:51;17.40;81.00
40638;DHT22;26336;44.696;10.622;2023-04-15T12:52:55;17.40;81.90
40638;DHT22;26336;44.696;10.622;2023-04-15T12:55:58;17.40;80.00
40638;DHT22;26336;44.696;10.622;2023-04-15T12:59:02;17.40;79.80
40638;DHT22;26336;44.696;10.622;2023-04-15T13:02:06;17.40;80.00
40638;DHT22;26336;44.696;10.622;2023-04-15T13:05:11;17.30;79.20
40638;DHT22;26336;44.696;10.622;2023-04-15T13:08:17;17.30;79.40
40638;DHT22;26336;44.696;10.622;2023-04-15T13:11:21;17.40;78.00
40638;DHT22;26336;44.696;10.622;2023-04-15T13:14:25;17.50;76.10
40638;DHT22;26336;44.696;10.622;2023-04-15T13:17:29;17.60;73.20
40638;DHT22;26336;44.696;10.622;2023-04-15T13:20:33;17.60;73.80
40638;DHT22;26336;44.696;10.622;2023-04-15T13:23:37;17.60;76.10
40638;DHT22;26336;44.696;10.622;2023-04-15T13:26:41;17.60;74.80
40638;DHT22;26336;44.696;10.622;2023-04-15T13:29:45;17.60;72.30
40638;DHT22;26336;44.696;10.622;2023-04-15T13:32:50;17.60;72.50
40638;DHT22;26336;44.696;10.622;2023-04-15T13:35:54;17.60;74.20
40638;DHT22;26336;44.696;10.622;2023-04-15T13:38:58;17.70;74.70
40638;DHT22;26336;44.696;10.622;2023-04-15T13:42:02;17.70;72.80
40638;DHT22;26336;44.696;10.622;2023-04-15T13:45:06;17.70;71.70
40638;DHT22;26336;44.696;10.622;2023-04-15T13:48:10;17.70;72.00
40638;DHT22;26336;44.696;10.622;2023-04-15T13:51:14;17.70;71.60
40638;DHT22;26336;44.696;10.622;2023-04-15T13:54:17;17.70;74.20
40638;DHT22;26336;44.696;10.622;2023-04-15T13:57:22;17.70;75.50
40638;DHT22;26336;44.696;10.622;2023-04-15T14:00:25;17.70;76.60
40638;DHT22;26336;44.696;10.622;2023-04-15T14:03:30;17.80;75.60
40638;DHT22;26336;44.696;10.622;2023-04-15T14:06:33;17.80;76.10
40638;DHT22;26336;44.696;10.622;2023-04-15T14:09:37;17.70;75.70
40638;DHT22;26336;44.696;10.622;2023-04-15T14:12:41;17.70;75.60
40638;DHT22;26336;44.696;10.622;2023-04-15T14:15:45;17.80;76.60
40638;DHT22;26336;44.696;10.622;2023-04-15T14:18:50;17.70;77.40
40638;DHT22;26336;44.696;10.622;2023-04-15T14:21:53;17.70;77.50
40638;DHT22;26336;44.696;10.622;2023-04-15T14:24:57;17.80;77.20
40638;DHT22;26336;44.696;10.622;2023-04-15T14:28:01;17.80;77.60
40638;DHT22;26336;44.696;10.622;2023-04-15T14:31:06;17.80;77.80
40638;DHT22;26336;44.696;10.622;2023-04-15T14:34:10;17.80;77.00
40638;DHT22;26336;44.696;10.622;2023-04-15T14:37:14;17.80;76.90
40638;DHT22;26336;44.696;10.622;2023-04-15T14:40:18;17.80;75.20
40638;DHT22;26336;44.696;10.622;2023-04-15T14:43:22;17.80;75.60
40638;DHT22;26336;44.696;10.622;2023-04-15T14:46:26;17.70;76.70
40638;DHT22;26336;44.696;10.622;2023-04-15T14:49:30;17.80;77.90
40638;DHT22;26336;44.696;10.622;2023-04-15T14:52:34;17.80;76.10
40638;DHT22;26336;44.696;10.622;2023-04-15T14:55:41;17.80;76.70
40638;DHT22;26336;44.696;10.622;2023-04-15T14:58:45;17.70;78.30
40638;DHT22;26336;44.696;10.622;2023-04-15T15:01:49;17.70;77.70
40638;DHT22;26336;44.696;10.622;2023-04-15T15:04:53;17.70;77.80
40638;DHT22;26336;44.696;10.622;2023-04-15T15:07:57;17.80;77.30
40638;DHT22;26336;44.696;10.622;2023-04-15T15:11:01;17.70;77.60
40638;DHT22;26336;44.696;10.622;2023-04-15T15:14:05;17.70;78.20
40638;DHT22;26336;44.696;10.622;2023-04-15T15:17:08;17.70;78.20
40638;DHT22;26336;44.696;10.622;2023-04-15T15:20:12;17.70;78.90
40638;DHT22;26336;44.696;10.622;2023-04-15T15:23:16;17.70;77.70
40638;DHT22;26336;44.696;10.622;2023-04-15T15:26:21;17.60;75.80
40638;DHT22;26336;44.696;10.622;2023-04-15T15:29:28;17.60;79.70
40638;DHT22;26336;44.696;10.622;2023-04-15T15:32:32;17.60;81.30
40638;DHT22;26336;44.696;10.622;2023-04-15T15:35:36;17.60;82.30
40638;DHT22;26336;44.696;10.622;2023-04-15T15:38:40;17.60;83.20
40638;DHT22;26336;44.696;10.622;2023-04-15T15:41:44;17.60;82.80
40638;DHT22;26336;44.696;10.622;2023-04-15T15:44:48;17.50;82.40
40638;DHT22;26336;44.696;10.622;2023-04-15T15:47:52;17.40;83.00
40638;DHT22;26336;44.696;10.622;2023-04-15T15:50:56;17.30;82.80
40638;DHT22;26336;44.696;10.622;2023-04-15T15:54:00;17.30;82.00
40638;DHT22;26336;44.696;10.622;2023-04-15T15:57:04;17.30;82.70
40638;DHT22;26336;44.696;10.622;2023-04-15T16:00:08;17.30;82.30
40638;DHT22;26336;44.696;10.622;2023-04-15T16:03:12;17.30;82.70
40638;DHT22;26336;44.696;10.622;2023-04-15T16:06:16;17.30;83.10
40638;DHT22;26336;44.696;10.622;2023-04-15T16:09:20;17.20;83.90
40638;DHT22;26336;44.696;10.622;2023-04-15T16:12:24;17.20;83.20
40638;DHT22;26336;44.696;10.622;2023-04-15T16:15:28;17.10;83.50
40638;DHT22;26336;44.696;10.622;2023-04-15T16:18:32;17.10;86.20
40638;DHT22;26336;44.696;10.622;2023-04-15T16:21:35;17.00;86.70
40638;DHT22;26336;44.696;10.622;2023-04-15T16:24:39;17.00;87.50
40638;DHT22;26336;44.696;10.622;2023-04-15T16:27:43;16.90;88.10
40638;DHT22;26336;44.696;10.622;2023-04-15T16:30:47;16.90;88.90
40638;DHT22;26336;44.696;10.622;2023-04-15T16:33:51;16.80;89.60
40638;DHT22;26336;44.696;10.622;2023-04-15T16:36:55;16.90;90.00
40638;DHT22;26336;44.696;10.622;2023-04-15T16:39:59;16.80;90.20
40638;DHT22;26336;44.696;10.622;2023-04-15T16:43:03;16.80;90.00
40638;DHT22;26336;44.696;10.622;2023-04-15T16:46:09;16.80;90.00
40638;DHT22;26336;44.696;10.622;2023-04-15T16:49:13;16.70;90.10
40638;DHT22;26336;44.696;10.622;2023-04-15T16:52:17;16.60;90.10
40638;DHT22;26336;44.696;10.622;2023-04-15T16:55:21;16.60;90.50
40638;DHT22;26336;44.696;10.622;2023-04-15T16:58:25;16.60;90.40
40638;DHT22;26336;44.696;10.622;2023-04-15T17:01:29;16.60;90.40
40638;DHT22;26336;44.696;10.622;2023-04-15T17:04:34;16.50;90.50
40638;DHT22;26336;44.696;10.622;2023-04-15T17:07:37;16.50;90.50
40638;DHT22;26336;44.696;10.622;2023-04-15T17:10:41;16.40;90.70
40638;DHT22;26336;44.696;10.622;2023-04-15T17:13:45;16.30;90.80
40638;DHT22;26336;44.696;10.622;2023-04-15T17:16:49;16.30;91.00
40638;DHT22;26336;44.696;10.622;2023-04-15T17:19:53;16.20;91.00
40638;DHT22;26336;44.696;10.622;2023-04-15T17:22:57;16.20;91.10
40638;DHT22;26336;44.696;10.622;2023-04-15T17:26:03;16.10;91.00
40638;DHT22;26336;44.696;10.622;2023-04-15T17:29:08;16.00;91.00
40638;DHT22;26336;44.696;10.622;2023-04-15T17:32:18;15.90;91.20
40638;DHT22;26336;44.696;10.622;2023-04-15T17:35:41;15.90;91.20
40638;DHT22;26336;44.696;10.622;2023-04-15T17:38:45;15.80;90.80
40638;DHT22;26336;44.696;10.622;2023-04-15T17:42:10;15.70;90.80
40638;DHT22;26336;44.696;10.622;2023-04-15T17:45:33;15.70;90.90
40638;DHT22;26336;44.696;10.622;2023-04-15T17:48:57;15.70;91.10
40638;DHT22;26336;44.696;10.622;2023-04-15T17:52:20;15.60;91.00
40638;DHT22;26336;44.696;10.622;2023-04-15T17:55:47;15.60;91.00
40638;DHT22;26336;44.696;10.622;2023-04-15T17:59:10;15.60;91.00
40638;DHT22;26336;44.696;10.622;2023-04-15T18:02:34;15.50;90.70
40638;DHT22;26336;44.696;10.622;2023-04-15T18:05:58;15.40;90.40
40638;DHT22;26336;44.696;10.622;2023-04-15T18:09:24;15.40;90.40
40638;DHT22;26336;44.696;10.622;2023-04-15T18:12:48;15.30;88.90
40638;DHT22;26336;44.696;10.622;2023-04-15T18:16:11;15.30;88.50
40638;DHT22;26336;44.696;10.622;2023-04-15T18:19:35;15.20;88.20
40638;DHT22;26336;44.696;10.622;2023-04-15T18:22:39;15.10;88.30
40638;DHT22;26336;44.696;10.622;2023-04-15T18:25:43;15.10;88.70
40638;DHT22;26336;44.696;10.622;2023-04-15T18:28:47;15.10;89.00
40638;DHT22;26336;44.696;10.622;2023-04-15T18:31:51;15.10;89.30
40638;DHT22;26336;44.696;10.622;2023-04-15T18:34:55;15.00;89.80
40638;DHT22;26336;44.696;10.622;2023-04-15T18:37:59;15.00;90.20
40638;DHT22;26336;44.696;10.622;2023-04-15T18:41:03;14.90;90.20
40638;DHT22;26336;44.696;10.622;2023-04-15T18:44:08;14.70;90.50
40638;DHT22;26336;44.696;10.622;2023-04-15T18:47:12;14.70;90.70
40638;DHT22;26336;44.696;10.622;2023-04-15T18:50:16;14.70;90.90
40638;DHT22;26336;44.696;10.622;2023-04-15T18:53:20;14.60;91.10
40638;DHT22;26336;44.696;10.622;2023-04-15T18:56:24;14.50;91.30
40638;DHT22;26336;44.696;10.622;2023-04-15T18:59:28;14.50;91.70
40638;DHT22;26336;44.696;10.622;2023-04-15T19:02:32;14.50;91.60
40638;DHT22;26336;44.696;10.622;2023-04-15T19:05:35;14.40;91.70
40638;DHT22;26336;44.696;10.622;2023-04-15T19:08:40;14.50;91.80
40638;DHT22;26336;44.696;10.622;2023-04-15T19:11:44;14.40;91.80
40638;DHT22;26336;44.696;10.622;2023-04-15T19:14:48;14.40;92.00
40638;DHT22;26336;44.696;10.622;2023-04-15T19:17:52;14.40;92.40
40638;DHT22;26336;44.696;10.622;2023-04-15T19:20:56;14.30;92.10
40638;DHT22;26336;44.696;10.622;2023-04-15T19:23:59;14.30;92.30
40638;DHT22;26336;44.696;10.622;2023-04-15T19:27:03;14.20;92.40
40638;DHT22;26336;44.696;10.622;2023-04-15T19:30:07;14.30;92.50